Time;durP1;ratioP1;P1;durP2;ratioP2;P2;SDS_P1;SDS_P2;PMS_P1;PMS_P2;Temp;Humidity;BMP_temperature;BMP_pressure;BME280_temperature;BME280_humidity;BME280_pressure;Samples;Min_cycle;Max_cycle;Signal;HPM_P1;HPM_P2
2021/10/15 00:00:19;;;;;;;11.80;8.60;;;;;;;9.52;100.00;100953.19;5040359;28;20218;-75
2021/10/15 00:02:45;;;;;;;11.13;8.40;;;;;;;9.50;100.00;100950.63;5045015;28;20199;-74
2021/10/15 00:05:13;;;;;;;10.17;7.50;;;;;;;9.51;100.00;100949.72;5046144;28;20211;-73
2021/10/15 00:07:39;;;;;;;12.33;8.07;;;;;;;9.53;100.00;100952.31;5043854;28;20219;-74
2021/10/15 00:10:08;;;;;;;10.17;7.70;;;;;;;9.50;100.00;100948.03;5044605;28;20207;-75
2021/10/15 00:12:35;;;;;;;11.90;8.07;;;;;;;9.50;100.00;100945.41;5047670;28;20227;-74
2021/10/15 00:15:02;;;;;;;11.53;7.60;;;;;;;9.50;100.00;100935.00;5042438;28;20233;-73
2021/10/15 00:17:28;;;;;;;11.93;7.70;;;;;;;9.48;100.00;100935.03;5041833;28;20244;-74
2021/10/15 00:19:55;;;;;;;12.07;7.83;;;;;;;9.50;100.00;100935.00;5043106;28;20206;-75
2021/10/15 00:22:22;;;;;;;11.20;7.63;;;;;;;9.50;100.00;100932.41;5047215;28;20199;-73
2021/10/15 00:24:49;;;;;;;13.37;7.97;;;;;;;9.51;100.00;100933.25;5046658;28;20207;-74
2021/10/15 00:27:15;;;;;;;11.73;8.03;;;;;;;9.51;100.00;100926.28;5037178;28;20218;-72
2021/10/15 00:29:41;;;;;;;12.83;7.77;;;;;;;9.49;100.00;100920.25;5042154;28;20199;-73
2021/10/15 00:32:08;;;;;;;15.67;7.77;;;;;;;9.48;100.00;100919.41;5043037;28;20238;-73
2021/10/15 00:34:34;;;;;;;9.30;6.63;;;;;;;9.48;100.00;100919.41;5047068;28;20222;-73
2021/10/15 00:37:01;;;;;;;10.73;7.47;;;;;;;9.49;100.00;100912.44;5042734;28;20714;-71
2021/10/15 00:39:28;;;;;;;11.93;7.60;;;;;;;9.48;100.00;100902.94;5043191;28;20227;-71
2021/10/15 00:41:55;;;;;;;12.10;8.30;;;;;;;9.47;100.00;100903.81;5043971;28;20424;-72
2021/10/15 00:44:21;;;;;;;13.80;8.40;;;;;;;9.48;100.00;100897.75;5047505;28;20603;-72
2021/10/15 00:46:48;;;;;;;12.20;8.50;;;;;;;9.49;100.00;100894.22;5041602;28;20206;-73
2021/10/15 00:49:15;;;;;;;12.73;8.23;;;;;;;9.48;100.00;100898.59;5038854;28;20233;-73
2021/10/15 00:51:43;;;;;;;12.43;8.37;;;;;;;9.49;100.00;100899.44;5043192;28;20200;-72
2021/10/15 00:54:12;;;;;;;11.97;8.20;;;;;;;9.48;100.00;100902.94;5041725;28;20225;-73
2021/10/15 00:56:43;;;;;;;14.67;8.40;;;;;;;9.48;100.00;100900.34;5043021;28;20211;-73
2021/10/15 00:59:09;;;;;;;11.70;8.13;;;;;;;9.49;100.00;100904.66;5039110;28;20218;-73
2021/10/15 01:02:30;;;;;;;13.07;8.43;;;;;;;9.48;100.00;100898.59;5044302;28;20207;-71
2021/10/15 01:04:56;;;;;;;12.13;8.00;;;;;;;9.48;100.00;100887.31;5044416;28;20576;-73
2021/10/15 01:07:24;;;;;;;11.87;7.80;;;;;;;9.50;100.00;100887.28;5044112;28;20619;-73
2021/10/15 01:09:51;;;;;;;13.60;8.63;;;;;;;9.49;100.00;100889.03;5042833;28;20685;-74
2021/10/15 01:12:21;;;;;;;11.60;7.70;;;;;;;9.48;100.00;100875.16;5042161;28;20335;-73
2021/10/15 01:14:47;;;;;;;12.97;8.40;;;;;;;9.48;100.00;100871.72;5044548;28;20229;-73
2021/10/15 01:17:14;;;;;;;16.33;8.73;;;;;;;9.49;100.00;100868.19;5040228;28;20211;-73
2021/10/15 01:19:40;;;;;;;13.43;7.97;;;;;;;9.48;100.00;100863.91;5043062;28;20227;-72
2021/10/15 01:22:09;;;;;;;11.70;8.37;;;;;;;9.47;100.00;100863.03;5041649;28;20202;-72
2021/10/15 01:24:36;;;;;;;11.33;8.30;;;;;;;9.49;100.00;100863.00;5040185;28;20203;-72
2021/10/15 01:27:07;;;;;;;10.83;7.77;;;;;;;9.47;100.00;100855.22;5041731;28;20561;-72
2021/10/15 01:29:34;;;;;;;11.07;7.60;;;;;;;9.48;100.00;100856.09;5042688;28;20892;-73
2021/10/15 01:32:00;;;;;;;11.93;7.87;;;;;;;9.48;100.00;100843.06;5042293;28;20215;-72
2021/10/15 01:34:27;;;;;;;11.37;8.00;;;;;;;9.48;100.00;100845.69;5041707;28;20273;-73
2021/10/15 01:36:54;;;;;;;13.13;7.93;;;;;;;9.48;100.00;100848.28;5041150;28;20199;-73
2021/10/15 01:39:22;;;;;;;12.70;8.10;;;;;;;9.47;100.00;100841.34;5041138;28;20231;-73
2021/10/15 01:41:48;;;;;;;12.63;8.73;;;;;;;9.46;100.00;100837.00;5045543;28;20203;-72
2021/10/15 01:44:15;;;;;;;11.07;7.80;;;;;;;9.47;100.00;100849.16;5038570;28;20702;-73
2021/10/15 01:46:41;;;;;;;9.77;7.23;;;;;;;9.46;100.00;100831.81;5043052;28;20233;-73
2021/10/15 01:49:08;;;;;;;12.53;8.20;;;;;;;9.45;100.00;100833.56;5041838;28;20222;-73
2021/10/15 01:51:34;;;;;;;10.63;7.70;;;;;;;9.46;100.00;100837.00;5041674;28;20203;-72
2021/10/15 01:54:00;;;;;;;10.50;6.97;;;;;;;9.46;100.00;100830.09;5041978;28;20215;-73
2021/10/15 01:56:28;;;;;;;14.37;7.60;;;;;;;9.50;100.00;100830.00;5041652;28;20395;-72
2021/10/15 01:58:55;;;;;;;9.83;7.30;;;;;;;9.48;100.00;100820.50;5055979;23;20237;-73
2021/10/15 02:01:21;;;;;;;11.70;7.33;;;;;;;9.49;100.00;100826.56;5039421;28;20638;-74
2021/10/15 02:03:47;;;;;;;10.13;7.60;;;;;;;9.47;100.00;100823.13;5047932;28;20209;-73
2021/10/15 02:06:14;;;;;;;12.80;7.40;;;;;;;9.47;100.00;100821.38;5041346;28;20765;-72
2021/10/15 02:08:40;;;;;;;10.17;7.00;;;;;;;9.50;100.00;100822.19;5043650;28;20719;-74
2021/10/15 02:11:07;;;;;;;9.60;6.50;;;;;;;9.50;100.00;100817.00;5039294;28;20667;-74
2021/10/15 02:13:35;;;;;;;9.07;7.00;;;;;;;9.49;100.00;100810.94;5047043;28;20227;-74
2021/10/15 02:16:01;;;;;;;10.20;6.93;;;;;;;9.48;100.00;100810.09;5045974;28;20195;-74
2021/10/15 02:18:28;;;;;;;11.97;6.83;;;;;;;9.47;100.00;100803.16;5041848;28;20231;-75
2021/10/15 02:20:54;;;;;;;11.17;6.60;;;;;;;9.47;100.00;100802.31;5047048;28;20202;-75
2021/10/15 02:23:24;;;;;;;9.10;6.73;;;;;;;9.46;100.00;100797.97;5047345;28;20248;-74
2021/10/15 02:25:50;;;;;;;8.57;6.03;;;;;;;9.46;100.00;100800.56;5052299;28;20198;-74
2021/10/15 02:28:17;;;;;;;9.37;5.97;;;;;;;9.48;100.00;100788.41;5045784;28;20228;-74
2021/10/15 02:30:44;;;;;;;9.13;5.47;;;;;;;9.48;100.00;100785.81;5049927;28;20206;-73
2021/10/15 02:33:11;;;;;;;9.40;5.70;;;;;;;9.48;100.00;100789.28;5045637;28;20217;-74
2021/10/15 02:35:37;;;;;;;9.43;6.47;;;;;;;9.47;100.00;100786.69;5050817;28;20202;-75
2021/10/15 02:38:04;;;;;;;7.17;5.47;;;;;;;9.47;100.00;100789.28;5050975;28;20207;-74
2021/10/15 02:40:33;;;;;;;7.17;5.60;;;;;;;9.47;100.00;100782.34;5043634;28;20211;-74
2021/10/15 02:42:59;;;;;;;9.10;6.27;;;;;;;9.46;100.00;100779.75;5051115;28;20199;-74
2021/10/15 02:45:25;;;;;;;6.10;5.17;;;;;;;9.47;100.00;100781.50;5043157;28;20258;-74
2021/10/15 02:47:53;;;;;;;8.03;5.50;;;;;;;9.45;100.00;100789.31;5048819;28;20770;-72
2021/10/15 02:50:19;;;;;;;7.40;5.27;;;;;;;9.47;100.00;100789.28;5042585;28;20557;-72
2021/10/15 02:52:46;;;;;;;6.57;5.43;;;;;;;9.49;100.00;100792.72;5051442;28;20754;-74
2021/10/15 02:55:12;;;;;;;7.50;5.63;;;;;;;9.48;100.00;100788.41;5044465;28;20227;-72
2021/10/15 02:57:38;;;;;;;6.97;5.37;;;;;;;9.47;100.00;100781.50;5045690;28;20222;-73
2021/10/15 03:00:06;;;;;;;5.97;5.30;;;;;;;9.46;100.00;100778.03;5046425;28;20513;-74
2021/10/15 03:02:33;;;;;;;8.57;5.50;;;;;;;9.44;100.00;100771.13;5045644;28;20214;-74
2021/10/15 03:05:01;;;;;;;8.87;5.10;;;;;;;9.44;100.00;100771.97;5047767;28;20676;-73
2021/10/15 03:07:28;;;;;;;7.53;5.00;;;;;;;9.45;100.00;100762.44;5043106;28;20199;-74
2021/10/15 03:09:54;;;;;;;6.43;4.90;;;;;;;9.44;100.00;100756.34;5049040;28;20878;-73
2021/10/15 03:12:20;;;;;;;5.70;4.77;;;;;;;9.44;100.00;100756.34;5043286;28;20203;-74
2021/10/15 03:14:47;;;;;;;6.90;5.03;;;;;;;9.44;100.00;100755.50;5049415;28;20219;-74
2021/10/15 03:17:13;;;;;;;5.80;4.97;;;;;;;9.45;100.00;100749.44;5043147;28;20213;-72
2021/10/15 03:19:40;;;;;;;7.60;4.83;;;;;;;9.44;100.00;100758.13;5044295;28;20249;-72
2021/10/15 03:22:07;;;;;;;9.43;5.13;;;;;;;9.44;100.00;100748.56;5045744;28;20207;-74
2021/10/15 03:24:34;;;;;;;7.90;5.47;;;;;;;9.44;100.00;100748.56;5049675;28;20632;-74
2021/10/15 03:27:00;;;;;;;7.53;5.30;;;;;;;9.44;100.00;100758.13;5043851;28;20205;-73
2021/10/15 03:29:26;;;;;;;7.17;5.10;;;;;;;9.45;100.00;100742.47;5045866;28;20215;-74
2021/10/15 03:31:53;;;;;;;6.30;4.80;;;;;;;9.47;100.00;100743.28;5045961;28;20202;-72
2021/10/15 03:34:19;;;;;;;6.80;5.10;;;;;;;9.46;100.00;100741.59;5043519;28;20223;-72
2021/10/15 03:36:45;;;;;;;6.00;5.00;;;;;;;9.47;100.00;100735.50;5051615;28;20203;-73
2021/10/15 03:39:14;;;;;;;7.27;4.97;;;;;;;9.48;100.00;100741.56;5041885;28;20246;-73
2021/10/15 03:41:41;;;;;;;5.77;4.70;;;;;;;9.48;100.00;100733.78;5047650;28;20234;-72
2021/10/15 03:44:07;;;;;;;8.57;5.40;;;;;;;9.49;100.00;100740.66;5040479;28;20214;-73
2021/10/15 03:46:33;;;;;;;5.47;4.33;;;;;;;9.46;100.00;100730.31;5043760;28;20599;-72
2021/10/15 03:49:00;;;;;;;6.57;4.17;;;;;;;9.43;100.00;100730.41;5045681;28;20590;-73
2021/10/15 03:51:26;;;;;;;6.40;4.70;;;;;;;9.39;100.00;100737.41;5045885;28;20298;-74
2021/10/15 03:53:52;;;;;;;6.07;4.70;;;;;;;9.32;100.00;100727.97;5050656;28;20230;-74
2021/10/15 03:56:20;;;;;;;7.20;4.40;;;;;;;9.26;100.00;100722.91;5045019;28;20215;-74
2021/10/15 03:58:46;;;;;;;6.53;4.97;;;;;;;9.19;100.00;100723.91;5049499;28;20614;-74
2021/10/15 04:01:13;;;;;;;7.83;5.03;;;;;;;9.12;100.00;100730.13;5045618;28;20664;-74
2021/10/15 04:03:39;;;;;;;7.17;5.00;;;;;;;9.06;100.00;100716.34;5047491;28;20340;-74
2021/10/15 04:06:06;;;;;;;6.93;6.00;;;;;;;9.06;100.00;100715.47;5045485;28;20208;-73
2021/10/15 04:08:32;;;;;;;6.43;4.70;;;;;;;9.07;100.00;100718.03;5045986;28;20227;-73
2021/10/15 04:10:59;;;;;;;6.73;5.60;;;;;;;9.07;100.00;100715.44;5046423;28;20692;-73
2021/10/15 04:13:26;;;;;;;7.70;5.93;;;;;;;9.06;100.00;100715.47;5046789;28;20213;-73
2021/10/15 04:15:53;;;;;;;9.27;7.50;;;;;;;9.05;100.00;100712.00;5047795;28;20559;-74
2021/10/15 04:18:19;;;;;;;11.53;7.87;;;;;;;9.03;100.00;100711.19;5043554;28;20731;-73
2021/10/15 04:20:45;;;;;;;15.60;10.20;;;;;;;9.04;100.00;100705.09;5049948;28;20732;-74
2021/10/15 04:23:12;;;;;;;18.00;11.57;;;;;;;9.04;100.00;100699.91;5046178;28;20242;-72
2021/10/15 04:25:39;;;;;;;10.67;6.90;;;;;;;9.06;100.00;100703.34;5048767;28;20219;-72
2021/10/15 04:28:05;;;;;;;8.60;6.13;;;;;;;9.07;100.00;100696.38;5048458;28;20213;-72
2021/10/15 04:30:33;;;;;;;8.93;5.50;;;;;;;9.07;100.00;100686.81;5044457;28;20206;-73
2021/10/15 04:32:59;;;;;;;14.97;8.30;;;;;;;9.07;100.00;100691.16;5041879;28;20590;-72
2021/10/15 04:35:26;;;;;;;23.43;10.60;;;;;;;9.08;100.00;100692.91;5042211;28;20212;-73
2021/10/15 04:37:52;;;;;;;13.97;8.47;;;;;;;9.08;100.00;100680.75;5046308;28;20203;-73
2021/10/15 04:40:18;;;;;;;26.83;13.60;;;;;;;9.10;100.00;100683.31;5039928;28;20207;-74
2021/10/15 04:42:45;;;;;;;30.10;15.00;;;;;;;9.10;100.00;100680.72;5046754;28;20205;-73
2021/10/15 04:45:11;;;;;;;18.90;11.23;;;;;;;9.09;100.00;100676.38;5044997;28;20205;-72
2021/10/15 04:47:39;;;;;;;15.10;9.93;;;;;;;9.08;100.00;100674.69;5047499;28;20195;-73
2021/10/15 04:50:06;;;;;;;11.13;7.10;;;;;;;9.06;100.00;100661.72;5042008;28;20229;-74
2021/10/15 04:52:33;;;;;;;7.97;6.23;;;;;;;9.07;100.00;100665.16;5045766;28;20196;-74
2021/10/15 04:54:59;;;;;;;8.37;6.60;;;;;;;9.07;100.00;100663.41;5039984;28;20678;-73
2021/10/15 04:57:25;;;;;;;7.90;6.30;;;;;;;9.08;100.00;100659.09;5044022;28;20215;-74
2021/10/15 04:59:52;;;;;;;7.63;5.83;;;;;;;9.08;100.00;100661.69;5041263;28;20226;-74
2021/10/15 05:02:18;;;;;;;9.20;6.20;;;;;;;9.07;100.00;100658.22;5043104;28;20205;-72
2021/10/15 05:04:46;;;;;;;8.37;6.37;;;;;;;9.08;100.00;100652.13;5047405;28;20202;-73
2021/10/15 05:07:12;;;;;;;7.57;6.30;;;;;;;9.09;100.00;100651.25;5043239;28;20221;-74
2021/10/15 05:09:39;;;;;;;9.37;6.37;;;;;;;9.11;100.00;100648.59;5046775;28;20591;-73
2021/10/15 05:12:07;;;;;;;15.93;10.10;;;;;;;9.11;100.00;100651.19;5043802;28;20217;-74
2021/10/15 05:14:34;;;;;;;18.57;12.00;;;;;;;9.11;100.00;100648.59;5045239;28;20237;-72
2021/10/15 05:17:02;;;;;;;12.53;9.63;;;;;;;9.12;100.00;100652.94;5041029;28;20587;-73
2021/10/15 05:19:28;;;;;;;13.93;8.90;;;;;;;9.12;100.00;100645.13;5047928;28;20233;-73
2021/10/15 05:21:56;;;;;;;11.30;8.13;;;;;;;9.13;100.00;100639.03;5041489;28;20214;-73
2021/10/15 05:24:23;;;;;;;11.80;8.30;;;;;;;9.13;100.00;100632.97;5044555;28;20238;-74
2021/10/15 05:26:49;;;;;;;15.03;9.67;;;;;;;9.14;100.00;100624.28;5046651;28;20191;-73
2021/10/15 05:29:16;;;;;;;12.77;9.30;;;;;;;9.13;100.00;100627.75;5043254;28;20671;-73
2021/10/15 05:31:42;;;;;;;11.50;9.13;;;;;;;9.13;100.00;100627.75;5049521;28;20274;-74
2021/10/15 05:34:09;;;;;;;13.70;9.30;;;;;;;9.12;100.00;100624.31;5040923;28;20293;-73
2021/10/15 05:36:35;;;;;;;11.77;8.80;;;;;;;9.11;100.00;100617.38;5049903;28;20612;-74
2021/10/15 05:39:04;;;;;;;11.90;7.77;;;;;;;9.13;100.00;100618.25;5040854;28;20230;-74
2021/10/15 05:41:30;;;;;;;10.97;8.00;;;;;;;9.13;100.00;100613.03;5046257;28;20759;-73
2021/10/15 05:43:56;;;;;;;17.30;11.60;;;;;;;9.13;100.00;100613.03;5042890;28;20217;-73
2021/10/15 05:46:23;;;;;;;21.97;13.63;;;;;;;9.15;100.00;100616.47;5043940;28;20208;-74
2021/10/15 05:48:49;;;;;;;11.87;7.90;;;;;;;9.16;100.00;100602.53;5046613;28;20226;-73
2021/10/15 05:51:15;;;;;;;9.93;7.63;;;;;;;9.19;100.00;100610.28;5040421;28;20207;-74
2021/10/15 05:53:43;;;;;;;9.90;7.93;;;;;;;9.21;100.00;100605.06;5045245;28;20218;-73
2021/10/15 05:56:41;;;;;;;10.17;6.77;;;;;;;9.23;100.00;100604.16;5038939;28;20603;-74
2021/10/15 05:59:07;;;;;;;8.63;6.20;;;;;;;9.28;100.00;100612.69;5045530;28;20231;-74
2021/10/15 06:01:35;;;;;;;8.33;6.83;;;;;;;9.32;100.00;100608.28;5041192;28;20195;-74
2021/10/15 06:14:57;;;;;;;10.60;7.13;;;;;;;9.48;100.00;100593.22;5044362;28;20810;-74
2021/10/15 06:17:26;;;;;;;8.60;7.40;;;;;;;9.53;100.00;100582.69;5045807;28;20199;-74
2021/10/15 06:19:53;;;;;;;9.83;7.17;;;;;;;9.58;100.00;100591.25;5045013;28;20305;-74
2021/10/15 06:22:20;;;;;;;7.30;6.10;;;;;;;9.61;100.00;100589.44;5039326;28;20207;-73
2021/10/15 06:24:49;;;;;;;11.33;6.27;;;;;;;9.66;100.00;100591.94;5046600;28;20199;-74
2021/10/15 06:27:17;;;;;;;10.47;6.40;;;;;;;9.70;100.00;100597.94;5040997;28;20725;-73
2021/10/15 06:29:43;;;;;;;7.60;6.30;;;;;;;9.73;100.00;100592.66;5042343;28;20219;-73
2021/10/15 06:32:10;;;;;;;18.27;6.43;;;;;;;9.77;100.00;100591.69;5041669;28;20210;-74
2021/10/15 06:34:36;;;;;;;7.23;6.00;;;;;;;9.82;100.00;100587.25;5047748;28;20214;-74
2021/10/15 06:37:03;;;;;;;9.53;6.17;;;;;;;9.88;100.00;100583.63;5040748;28;20199;-73
2021/10/15 06:39:29;;;;;;;6.97;5.73;;;;;;;9.92;100.00;100582.66;5041924;28;20227;-72
2021/10/15 06:41:56;;;;;;;9.33;5.13;;;;;;;9.92;100.00;100583.53;5044716;28;20210;-72
2021/10/15 06:44:23;;;;;;;6.70;4.63;;;;;;;9.97;100.00;100588.59;5042456;28;20204;-73
2021/10/15 06:46:50;;;;;;;5.80;4.73;;;;;;;10.01;100.00;100588.50;5042284;28;20597;-72
2021/10/15 06:49:16;;;;;;;5.73;4.87;;;;;;;10.05;100.00;100584.06;5038147;28;20230;-72
2021/10/15 06:51:43;;;;;;;6.57;4.63;;;;;;;10.07;100.00;100581.44;5045910;28;20199;-73
2021/10/15 06:54:09;;;;;;;4.97;4.47;;;;;;;10.08;100.00;100576.19;5040393;28;20235;-74
2021/10/15 06:56:35;;;;;;;5.97;4.30;;;;;;;10.13;100.00;100583.88;5043377;28;20215;-73
2021/10/15 06:59:02;;;;;;;11.07;5.77;;;;;;;10.16;100.00;100576.84;5040349;28;20227;-73
2021/10/15 07:01:29;;;;;;;5.27;4.20;;;;;;;10.22;100.00;100574.09;5046306;28;20269;-73
2021/10/15 07:03:56;;;;;;;6.80;4.60;;;;;;;10.27;100.00;100562.69;5034626;28;20218;-74
2021/10/15 07:06:22;;;;;;;5.43;4.80;;;;;;;10.33;100.00;100565.19;5044922;28;20203;-73
2021/10/15 07:08:48;;;;;;;5.67;4.73;;;;;;;10.36;100.00;100563.34;5043419;28;20215;-73
2021/10/15 07:11:15;;;;;;;5.37;4.07;;;;;;;10.44;100.00;100567.50;5046704;28;20229;-73
2021/10/15 07:13:41;;;;;;;6.43;4.40;;;;;;;10.48;100.00;100558.69;5046472;28;20203;-73
2021/10/15 07:16:10;;;;;;;7.43;4.20;;;;;;;10.52;100.00;100555.97;5041693;28;20216;-73
2021/10/15 07:18:38;;;;;;;6.37;4.57;;;;;;;10.57;100.00;100558.44;5046702;28;20272;-73
2021/10/15 07:21:05;;;;;;;5.40;4.07;;;;;;;10.60;100.00;100560.97;5039907;28;20203;-72
2021/10/15 07:23:32;;;;;;;7.53;4.60;;;;;;;10.63;100.00;100555.69;5045774;28;20202;-73
2021/10/15 07:25:59;;;;;;;6.17;4.20;;;;;;;10.68;100.00;100551.19;5046165;28;20217;-73
2021/10/15 07:28:26;;;;;;;7.60;4.50;;;;;;;10.75;100.00;100552.72;5047368;28;20232;-73
2021/10/15 07:30:53;;;;;;;5.23;4.30;;;;;;;10.82;100.00;100556.03;5043207;28;20242;-73
2021/10/15 07:33:20;;;;;;;5.97;4.33;;;;;;;10.86;100.00;100551.56;5043271;28;20213;-73
2021/10/15 07:35:48;;;;;;;5.13;4.30;;;;;;;10.87;100.00;100548.94;5045423;28;20205;-73
2021/10/15 07:38:14;;;;;;;5.33;4.23;;;;;;;10.89;100.00;100549.75;5041205;28;20224;-74
2021/10/15 07:40:41;;;;;;;5.63;3.90;;;;;;;10.93;100.00;100556.56;5049882;28;20212;-74
2021/10/15 07:43:07;;;;;;;7.57;5.23;;;;;;;11.02;100.00;100559.81;5044508;28;20201;-73
2021/10/15 07:45:34;;;;;;;7.17;5.23;;;;;;;11.06;100.00;100561.44;5046863;28;20202;-73
2021/10/15 07:48:00;;;;;;;5.97;4.90;;;;;;;11.10;100.00;100563.91;5041082;28;20219;-72
2021/10/15 07:50:28;;;;;;;5.97;4.70;;;;;;;11.18;100.00;100561.91;5049530;28;20329;-73
2021/10/15 07:52:56;;;;;;;6.83;4.23;;;;;;;11.24;100.00;100565.25;5047735;28;20200;-74
2021/10/15 07:55:22;;;;;;;10.40;4.70;;;;;;;11.22;100.00;100573.16;5047624;28;20216;-73
2021/10/15 07:57:49;;;;;;;5.50;4.50;;;;;;;11.20;100.00;100563.63;5047493;28;20205;-73
2021/10/15 08:00:16;;;;;;;7.63;6.40;;;;;;;11.22;100.00;100567.94;5057530;22;20327;-73
2021/10/15 08:02:42;;;;;;;7.30;4.73;;;;;;;11.22;100.00;100564.44;5039968;28;20203;-73
2021/10/15 08:05:13;;;;;;;7.53;5.27;;;;;;;11.28;100.00;100552.06;5040839;28;20286;-73
2021/10/15 08:07:39;;;;;;;6.33;4.43;;;;;;;11.34;100.00;100562.34;5039799;28;20737;-72
2021/10/15 08:10:09;;;;;;;5.67;4.87;;;;;;;11.43;100.00;100563.78;5027012;28;20245;-73
2021/10/15 08:12:37;;;;;;;4.83;4.30;;;;;;;11.48;100.00;100559.28;5029543;28;20217;-72
2021/10/15 08:15:04;;;;;;;5.33;4.23;;;;;;;11.56;100.00;100565.13;5020988;28;20321;-73
2021/10/15 08:17:31;;;;;;;6.43;4.67;;;;;;;11.66;100.00;100562.22;5023906;28;20214;-72
2021/10/15 08:19:57;;;;;;;7.07;4.70;;;;;;;11.72;100.00;100559.44;5019879;28;20222;-73
2021/10/15 08:22:23;;;;;;;4.70;3.70;;;;;;;11.76;100.00;100563.63;5020503;28;20207;-72
2021/10/15 08:24:50;;;;;;;6.40;4.00;;;;;;;11.79;100.00;100565.31;4959978;28;20312;-75
2021/10/15 08:27:17;;;;;;;7.60;5.20;;;;;;;11.82;100.00;100549.53;4963400;28;20209;-73
2021/10/15 08:29:44;;;;;;;6.93;5.73;;;;;;;11.84;100.00;100560.81;4970282;28;20223;-72
2021/10/15 08:32:10;;;;;;;7.00;5.57;;;;;;;11.88;100.00;100558.03;4961169;28;21000;-73
2021/10/15 08:34:37;;;;;;;7.03;5.73;;;;;;;11.97;100.00;100558.66;4965123;28;20725;-73
2021/10/15 08:37:04;;;;;;;5.33;3.83;;;;;;;12.01;100.00;100563.72;4960708;28;20231;-73
2021/10/15 08:39:30;;;;;;;21.47;13.13;;;;;;;12.09;100.00;100546.03;4965190;28;20227;-73
2021/10/15 08:41:58;;;;;;;11.73;8.60;;;;;;;12.13;100.00;100552.84;4966109;28;20215;-72
2021/10/15 08:44:33;;;;;;;34.40;25.20;;;;;;;12.18;98.64;100557.09;4965054;28;20742;-73
2021/10/15 08:47:00;;;;;;;24.20;15.47;;;;;;;12.21;99.08;100550.00;4966392;28;20212;-72
2021/10/15 08:49:26;;;;;;;8.73;5.10;;;;;;;12.19;97.15;100557.06;4968914;28;20313;-72
2021/10/15 08:51:53;;;;;;;8.00;5.10;;;;;;;12.24;97.83;100559.50;4971806;28;20194;-73
2021/10/15 08:54:20;;;;;;;32.50;24.40;;;;;;;12.25;98.01;100541.13;4963461;28;20208;-73
2021/10/15 08:56:46;;;;;;;28.80;21.30;;;;;;;12.32;97.84;100550.47;4965914;28;20619;-73
2021/10/15 08:59:15;;;;;;;5.60;4.33;;;;;;;12.34;96.94;100547.81;4964586;28;20264;-73
2021/10/15 09:01:46;;;;;;;12.13;8.93;;;;;;;12.42;97.45;100544.94;4967168;28;20210;-72
2021/10/15 09:04:17;;;;;;;6.53;4.83;;;;;;;12.41;95.11;100551.91;4964753;28;20240;-73
2021/10/15 09:06:44;;;;;;;15.07;13.53;;;;;;;12.50;94.92;100551.63;4964981;28;20202;-72
2021/10/15 09:09:11;;;;;;;5.40;4.30;;;;;;;12.62;94.94;100544.22;4962272;28;20232;-72
2021/10/15 09:11:39;;;;;;;3.23;2.70;;;;;;;12.80;92.70;100546.16;4962878;28;20633;-72
2021/10/15 09:14:09;;;;;;;3.17;2.57;;;;;;;13.08;93.66;100543.38;4968172;28;20204;-71
2021/10/15 09:17:00;;;;;;;5.90;4.80;;;;;;;13.28;93.14;100533.94;4962094;28;20222;-71
2021/10/15 09:19:28;;;;;;;3.57;3.13;;;;;;;13.38;89.36;100543.16;4965407;28;20234;-72
2021/10/15 09:22:10;;;;;;;2.93;2.33;;;;;;;13.27;88.93;100533.06;4961381;28;20201;-72
2021/10/15 09:24:40;;;;;;;21.07;15.07;;;;;;;13.20;88.02;100525.50;4961522;28;20746;-72
2021/10/15 09:27:14;;;;;;;9.67;7.17;;;;;;;13.15;88.37;100514.38;4965184;28;20198;-72
2021/10/15 09:29:45;;;;;;;4.37;2.67;;;;;;;13.11;88.10;100529.34;4962571;28;20317;-71
2021/10/15 09:32:13;;;;;;;3.40;2.20;;;;;;;13.04;88.35;100513.00;4967569;28;20212;-72
2021/10/15 09:34:40;;;;;;;34.53;29.90;;;;;;;13.11;89.41;100518.88;4962173;28;20296;-72
2021/10/15 09:37:15;;;;;;;3.00;2.10;;;;;;;13.13;89.59;100514.41;4961124;28;20225;-72
2021/10/15 09:39:41;;;;;;;3.27;2.30;;;;;;;13.33;89.03;100515.44;4963815;28;20222;-71
2021/10/15 09:42:32;;;;;;;3.37;2.47;;;;;;;13.46;86.81;100516.69;4966298;28;20204;-72
2021/10/15 09:45:12;;;;;;;2.90;2.50;;;;;;;13.53;87.00;100518.13;4952062;28;20212;-72
2021/10/15 09:47:40;;;;;;;2.17;1.90;;;;;;;13.64;86.76;100513.28;4960458;28;20269;-72
2021/10/15 09:50:08;;;;;;;4.07;2.80;;;;;;;13.59;85.38;100514.41;4966532;28;20232;-72
2021/10/15 09:52:38;;;;;;;2.30;2.10;;;;;;;13.61;86.61;100513.44;4963870;28;20206;-72
2021/10/15 09:55:13;;;;;;;2.60;2.40;;;;;;;13.58;86.05;100516.19;4966424;28;20213;-72
2021/10/15 09:57:41;;;;;;;3.20;2.00;;;;;;;13.46;83.41;100513.22;4963304;28;20198;-71
2021/10/15 10:00:09;;;;;;;1.70;1.60;;;;;;;13.35;83.56;100511.00;4964364;28;21600;-73
2021/10/15 10:02:37;;;;;;;1.60;1.50;;;;;;;13.42;84.04;100494.13;4968218;28;20232;-71
2021/10/15 10:05:09;;;;;;;2.23;1.30;;;;;;;13.38;85.41;100490.78;4963402;28;20229;-71
2021/10/15 10:07:36;;;;;;;2.17;1.43;;;;;;;13.61;83.09;100495.09;4968149;28;20261;-71
2021/10/15 10:10:05;;;;;;;2.70;1.40;;;;;;;13.78;83.22;100489.16;4963090;28;20230;-71
2021/10/15 10:12:35;;;;;;;1.53;1.10;;;;;;;13.84;82.24;100498.53;4965547;28;20572;-72
2021/10/15 10:15:02;;;;;;;1.97;1.00;;;;;;;13.75;80.06;100497.13;4963419;28;20694;-72
2021/10/15 10:17:30;;;;;;;1.93;1.50;;;;;;;13.80;80.69;100491.72;4963574;28;20230;-72
2021/10/15 10:20:04;;;;;;;1.33;1.00;;;;;;;13.74;80.14;100491.97;4960730;28;20229;-72
2021/10/15 10:22:33;;;;;;;2.60;1.30;;;;;;;13.81;79.06;100502.13;4961883;28;20205;-70
2021/10/15 10:25:01;;;;;;;1.30;1.10;;;;;;;13.97;78.50;100498.88;4964582;28;20214;-71
2021/10/15 10:27:30;;;;;;;0.80;0.80;;;;;;;14.05;79.66;100488.91;4963290;28;20218;-72
2021/10/15 10:29:56;;;;;;;1.10;1.00;;;;;;;14.16;79.29;100485.84;4965206;28;20253;-72
2021/10/15 10:32:24;;;;;;;2.60;1.40;;;;;;;14.30;75.99;100495.72;4954736;28;20911;-72
2021/10/15 10:34:52;;;;;;;2.10;1.17;;;;;;;14.34;77.20;100479.78;4966912;28;20214;-72
2021/10/15 10:37:20;;;;;;;1.37;0.90;;;;;;;14.41;78.00;100471.66;4962822;28;20256;-72
2021/10/15 10:40:05;;;;;;;4.60;0.90;;;;;;;14.40;73.35;100497.00;4965574;28;20240;-72
2021/10/15 10:42:31;;;;;;;1.47;1.10;;;;;;;14.21;75.12;100496.97;4968042;28;20210;-73
2021/10/15 10:45:11;;;;;;;1.27;1.03;;;;;;;14.05;73.72;100498.53;4966742;28;20200;-72
2021/10/15 10:47:38;;;;;;;0.93;0.90;;;;;;;14.00;74.72;100503.97;4969711;28;21115;-72
2021/10/15 10:50:13;;;;;;;2.23;0.87;;;;;;;13.95;75.66;100492.84;4968687;28;20286;-72
2021/10/15 10:53:05;;;;;;;1.10;1.00;;;;;;;13.90;73.78;100494.81;4970712;28;20215;-72
2021/10/15 10:55:34;;;;;;;1.10;1.00;;;;;;;13.91;75.37;100483.41;4967672;28;20225;-72
2021/10/15 10:58:01;;;;;;;2.10;1.10;;;;;;;14.08;75.79;100487.94;4963211;28;20731;-72
2021/10/15 11:00:31;;;;;;;2.93;1.10;;;;;;;14.32;76.13;100483.41;4971674;28;20236;-73
2021/10/15 11:02:59;;;;;;;1.20;1.10;;;;;;;14.37;74.34;100491.91;4963572;28;20230;-72
2021/10/15 11:05:37;;;;;;;2.97;1.30;;;;;;;14.39;75.35;100475.19;4968848;28;20198;-72
2021/10/15 11:08:28;;;;;;;4.37;2.47;;;;;;;14.37;75.18;100487.53;4967346;28;20206;-72
2021/10/15 11:11:43;;;;;;;2.37;1.40;;;;;;;14.27;76.18;100486.22;4966732;28;20222;-72
2021/10/15 11:14:50;;;;;;;1.30;1.20;;;;;;;14.04;75.54;100497.69;4969281;28;21111;-72
2021/10/15 11:17:18;;;;;;;2.23;1.60;;;;;;;13.86;76.69;100493.22;4965839;28;20259;-72
2021/10/15 11:19:45;;;;;;;3.17;1.40;;;;;;;13.77;77.53;100490.09;4961709;28;20231;-72
2021/10/15 11:22:12;;;;;;;2.10;1.67;;;;;;;13.70;77.75;100491.25;4967194;28;20210;-72
2021/10/15 11:24:38;;;;;;;2.70;1.53;;;;;;;13.66;77.27;100494.91;4964711;28;20198;-73
2021/10/15 11:27:17;;;;;;;4.50;1.40;;;;;;;13.70;77.28;100493.88;4968722;28;20672;-72
2021/10/15 11:29:54;;;;;;;1.87;1.40;;;;;;;13.73;78.51;100498.13;4966692;28;20723;-72
2021/10/15 11:32:35;;;;;;;2.23;1.43;;;;;;;13.62;78.20;100495.94;4972289;28;20253;-72
2021/10/15 11:35:07;;;;;;;1.77;1.37;;;;;;;13.49;78.42;100494.72;4965221;28;20208;-73